Time;durP1;ratioP1;P1;durP2;ratioP2;P2;SDS_P1;SDS_P2;PMS_P1;PMS_P2;Temp;Humidity;BMP_temperature;BMP_pressure;BME280_temperature;BME280_humidity;BME280_pressure;Samples;Min_cycle;Max_cycle;Signal;HPM_P1;HPM_P2
2023/04/10 00:00:28;;;;;;;15.66;9.00;;;;;;;1.44;100.00;96500.38;1046912;28;20469;-74
2023/04/10 00:00:59;;;;;;;15.18;8.56;;;;;;;1.43;100.00;96498.78;1046876;28;20024;-73
2023/04/10 00:01:34;;;;;;;15.44;8.52;;;;;;;1.44;100.00;96497.78;1042884;28;20164;-74
2023/04/10 00:02:04;;;;;;;18.48;9.04;;;;;;;1.43;100.00;96493.63;1035727;28;20018;-73
2023/04/10 00:02:36;;;;;;;14.80;8.80;;;;;;;1.38;100.00;96490.81;1037992;28;20778;-72
2023/04/10 00:03:06;;;;;;;17.16;8.82;;;;;;;1.37;100.00;96492.56;1034590;28;20018;-74
2023/04/10 00:03:36;;;;;;;16.50;8.60;;;;;;;1.39;100.00;96498.38;1032380;28;20023;-73
2023/04/10 00:04:07;;;;;;;16.13;8.73;;;;;;;1.32;100.00;96488.97;1034762;28;20010;-73
2023/04/10 00:04:38;;;;;;;15.88;9.18;;;;;;;1.35;100.00;96497.16;1030405;28;20456;-73
2023/04/10 00:05:08;;;;;;;16.60;8.80;;;;;;;1.34;100.00;96492.13;1022268;28;20023;-74
2023/04/10 00:05:39;;;;;;;16.55;9.27;;;;;;;1.33;100.00;96491.34;1027837;28;20109;-74
2023/04/10 00:06:09;;;;;;;17.08;8.70;;;;;;;1.30;100.00;96486.53;1034686;28;20021;-75
2023/04/10 00:06:40;;;;;;;16.33;8.40;;;;;;;1.32;100.00;96500.09;1034712;28;20029;-73
2023/04/10 00:07:11;;;;;;;17.76;8.90;;;;;;;1.31;100.00;96503.69;1034407;28;20022;-74
2023/04/10 00:07:41;;;;;;;17.15;8.98;;;;;;;1.24;100.00;96486.47;1030593;28;20018;-74
2023/04/10 00:08:12;;;;;;;16.27;8.48;;;;;;;1.29;100.00;96497.09;1030349;28;20519;-74
2023/04/10 00:08:42;;;;;;;15.73;9.15;;;;;;;1.28;100.00;96498.06;1030706;28;20018;-74
2023/04/10 00:09:13;;;;;;;17.38;9.38;;;;;;;1.25;100.00;96491.47;1030618;28;20015;-74
2023/04/10 00:09:43;;;;;;;18.10;9.00;;;;;;;1.27;100.00;96492.09;1030435;28;20445;-74
2023/04/10 00:10:14;;;;;;;15.57;8.90;;;;;;;1.26;100.00;96492.28;1030622;28;20014;-73
2023/04/10 00:10:44;;;;;;;17.25;9.60;;;;;;;1.18;100.00;96478.50;1038900;28;20017;-74
2023/04/10 00:11:15;;;;;;;17.55;9.68;;;;;;;1.27;100.00;96488.69;1038635;28;20017;-73
2023/04/10 00:11:45;;;;;;;15.73;8.52;;;;;;;1.21;100.00;96486.84;1034852;28;20018;-74
2023/04/10 00:12:16;;;;;;;13.98;8.27;;;;;;;1.19;100.00;96489.63;1026368;28;20044;-74
2023/04/10 00:12:46;;;;;;;16.27;9.43;;;;;;;1.24;100.00;96489.06;1034633;28;20028;-74
2023/04/10 00:13:16;;;;;;;16.95;9.38;;;;;;;1.24;100.00;96489.06;1030621;28;20551;-74
2023/04/10 00:13:47;;;;;;;17.58;9.52;;;;;;;1.19;100.00;96487.06;1030354;28;20467;-73
2023/04/10 00:14:21;;;;;;;16.30;8.98;;;;;;;1.20;100.00;96491.22;1026633;28;20038;-74
2023/04/10 00:14:52;;;;;;;17.70;9.34;;;;;;;1.13;100.00;96480.81;1031019;28;20648;-74
2023/04/10 00:15:23;;;;;;;15.70;9.05;;;;;;;1.20;100.00;96495.59;1038322;28;20036;-74
2023/04/10 00:15:53;;;;;;;17.48;9.43;;;;;;;1.20;100.00;96495.59;1030793;28;20076;-74
2023/04/10 00:16:24;;;;;;;15.77;8.77;;;;;;;1.18;100.00;96494.00;1030452;28;20030;-74
2023/04/10 00:16:54;;;;;;;15.95;8.85;;;;;;;1.12;100.00;96484.41;1018678;29;20110;-74
2023/04/10 00:17:25;;;;;;;17.23;9.00;;;;;;;1.11;100.00;96482.00;1025376;28;20022;-73
2023/04/10 00:17:55;;;;;;;15.98;8.65;;;;;;;1.14;100.00;96495.38;1034662;28;20039;-74
2023/04/10 00:18:26;;;;;;;15.75;8.65;;;;;;;1.08;100.00;96490.13;1038947;28;20060;-74
2023/04/10 00:18:56;;;;;;;16.48;9.52;;;;;;;1.12;100.00;96492.16;1034213;28;20032;-74
2023/04/10 00:19:26;;;;;;;19.48;9.88;;;;;;;1.06;100.00;96490.31;1026472;28;20025;-74
2023/04/10 00:19:58;;;;;;;16.10;9.07;;;;;;;1.05;100.00;96483.53;1030626;28;20033;-73
2023/04/10 00:20:28;;;;;;;18.16;9.36;;;;;;;1.09;100.00;96495.09;1030781;28;20451;-74
2023/04/10 00:20:59;;;;;;;15.60;9.23;;;;;;;1.07;100.00;96491.88;1035250;28;20026;-73
2023/04/10 00:21:30;;;;;;;18.02;9.65;;;;;;;1.05;100.00;96493.09;1042804;28;20494;-74
2023/04/10 00:22:00;;;;;;;15.36;9.04;;;;;;;1.05;100.00;96488.72;1034636;28;20097;-74
2023/04/10 00:22:31;;;;;;;13.73;9.13;;;;;;;1.00;100.00;96483.28;1038847;28;20036;-73
2023/04/10 00:23:02;;;;;;;15.88;9.06;;;;;;;0.98;100.00;96482.69;1037954;28;20033;-73
2023/04/10 00:23:33;;;;;;;15.45;9.25;;;;;;;0.99;100.00;96484.28;1030912;28;20484;-74
2023/04/10 00:24:04;;;;;;;16.64;8.70;;;;;;;1.00;100.00;96485.84;1030178;28;20023;-74
2023/04/10 00:24:34;;;;;;;16.52;9.38;;;;;;;1.01;100.00;96487.47;1025682;28;20019;-73
2023/04/10 00:25:05;;;;;;;16.58;9.75;;;;;;;0.92;100.00;96475.66;1026356;28;20029;-73
2023/04/10 00:25:36;;;;;;;17.70;10.32;;;;;;;0.98;100.00;96482.69;1034007;28;20810;-74
2023/04/10 00:26:06;;;;;;;17.48;8.75;;;;;;;0.99;100.00;96483.47;1031216;28;20018;-74
2023/04/10 00:26:36;;;;;;;17.83;9.13;;;;;;;0.91;100.00;96474.06;1034905;28;20022;-74
2023/04/10 00:27:07;;;;;;;17.75;10.05;;;;;;;0.91;100.00;96476.66;1030483;28;20026;-74
2023/04/10 00:27:37;;;;;;;17.40;9.43;;;;;;;0.89;100.00;96478.59;1038694;28;20131;-74
2023/04/10 00:28:08;;;;;;;16.27;9.48;;;;;;;0.91;100.00;96486.97;1034573;28;20022;-74
2023/04/10 00:28:38;;;;;;;17.15;9.27;;;;;;;0.91;100.00;96481.81;1030365;28;20022;-74
2023/04/10 00:29:09;;;;;;;20.02;9.70;;;;;;;0.89;100.00;96483.78;1038878;28;20037;-74
2023/04/10 00:29:39;;;;;;;17.10;9.25;;;;;;;0.88;100.00;96482.97;1034402;28;20112;-72
2023/04/10 00:30:10;;;;;;;17.83;9.82;;;;;;;0.88;100.00;96477.00;1034504;28;20089;-73
2023/04/10 00:30:40;;;;;;;18.40;9.25;;;;;;;0.87;100.00;96480.56;1042724;28;20516;-74
2023/04/10 00:31:11;;;;;;;20.45;10.45;;;;;;;0.87;100.00;96480.56;1030357;28;20015;-74
2023/04/10 00:31:41;;;;;;;17.13;9.75;;;;;;;0.85;100.00;96478.16;1030305;28;20026;-73
2023/04/10 00:32:12;;;;;;;17.30;8.90;;;;;;;0.84;100.00;96468.00;1034634;28;20061;-74
2023/04/10 00:32:42;;;;;;;17.73;9.48;;;;;;;0.85;100.00;96472.22;1041308;28;20026;-73
2023/04/10 00:33:13;;;;;;;18.42;9.82;;;;;;;0.84;100.00;96475.75;1045250;28;20071;-74
2023/04/10 00:33:43;;;;;;;16.92;8.82;;;;;;;0.85;100.00;96472.22;1042890;28;20024;-73
2023/04/10 00:34:14;;;;;;;17.13;8.43;;;;;;;0.84;100.00;96475.75;1038888;28;20844;-73
2023/04/10 00:34:45;;;;;;;15.65;9.02;;;;;;;0.84;100.00;96465.41;1040413;28;20495;-73
2023/04/10 00:35:15;;;;;;;16.98;9.90;;;;;;;0.77;100.00;96460.22;1042802;28;20784;-74
2023/04/10 00:35:46;;;;;;;18.25;9.38;;;;;;;0.84;100.00;96465.41;1035556;28;20421;-74
2023/04/10 00:36:17;;;;;;;15.75;9.07;;;;;;;0.84;100.00;96468.00;1034940;28;20455;-74
2023/04/10 00:36:48;;;;;;;17.22;9.44;;;;;;;0.82;100.00;96470.78;1030677;28;20029;-73
2023/04/10 00:37:18;;;;;;;17.05;9.77;;;;;;;0.83;100.00;96472.38;1030983;28;20023;-73
2023/04/10 00:37:49;;;;;;;16.10;9.20;;;;;;;0.82;100.00;96470.78;1026633;28;20022;-74
2023/04/10 00:38:20;;;;;;;18.15;9.85;;;;;;;0.82;100.00;96467.41;1034436;28;20022;-74
2023/04/10 00:38:50;;;;;;;18.88;9.60;;;;;;;0.82;100.00;96462.25;1039125;28;20025;-73
2023/04/10 00:39:21;;;;;;;16.48;8.88;;;;;;;0.82;100.00;96467.41;1034803;28;20026;-74
2023/04/10 00:39:51;;;;;;;17.27;9.02;;;;;;;0.74;100.00;96452.84;1034258;28;20018;-74
2023/04/10 00:40:22;;;;;;;16.65;8.93;;;;;;;0.82;100.00;96462.25;1026931;28;20034;-73
2023/04/10 00:40:52;;;;;;;16.38;9.02;;;;;;;0.81;100.00;96460.66;1034758;28;20030;-73
2023/04/10 00:41:23;;;;;;;17.85;9.90;;;;;;;0.82;100.00;96459.66;1038920;28;20064;-74
2023/04/10 00:41:54;;;;;;;20.40;10.05;;;;;;;0.80;100.00;96459.81;1034664;28;20018;-74
2023/04/10 00:42:24;;;;;;;19.05;9.70;;;;;;;0.78;100.00;96458.44;1034559;28;20014;-74
2023/04/10 00:42:55;;;;;;;16.58;9.98;;;;;;;0.76;100.00;96453.44;1034749;28;20656;-73
2023/04/10 00:43:26;;;;;;;17.42;9.43;;;;;;;0.77;100.00;96456.81;1026993;28;20015;-74
2023/04/10 00:43:56;;;;;;;16.26;9.00;;;;;;;0.77;100.00;96454.22;1022387;28;20609;-74
2023/04/10 00:44:27;;;;;;;18.40;9.82;;;;;;;0.77;100.00;96455.06;1022366;28;20027;-73
2023/04/10 00:44:58;;;;;;;17.73;9.20;;;;;;;0.68;100.00;96449.19;1029150;28;20025;-74
2023/04/10 00:45:28;;;;;;;16.44;9.34;;;;;;;0.76;100.00;96455.22;1038819;28;20025;-74
2023/04/10 00:45:59;;;;;;;17.77;9.90;;;;;;;0.76;100.00;96457.81;1033794;28;21568;-74
2023/04/10 00:46:30;;;;;;;18.80;9.50;;;;;;;0.75;100.00;96453.63;1022289;28;20103;-74
2023/04/10 00:47:00;;;;;;;15.70;8.88;;;;;;;0.76;100.00;96452.63;1026642;28;20366;-74
2023/04/10 00:47:31;;;;;;;17.48;9.45;;;;;;;0.72;100.00;96443.66;1030437;28;20253;-74
2023/04/10 00:48:02;;;;;;;21.75;10.30;;;;;;;0.70;100.00;96442.06;1030740;28;20018;-74
2023/04/10 00:48:33;;;;;;;16.68;8.86;;;;;;;0.75;100.00;96448.47;1026533;28;20073;-74
2023/04/10 00:49:03;;;;;;;14.88;8.77;;;;;;;0.75;100.00;96451.03;1022356;29;20122;-74
2023/04/10 00:49:34;;;;;;;18.55;9.02;;;;;;;0.59;100.00;96427.03;1027002;28;20018;-74
2023/04/10 00:50:05;;;;;;;18.17;9.50;;;;;;;0.75;100.00;96453.63;1034208;28;20021;-74
2023/04/10 00:50:36;;;;;;;16.02;9.18;;;;;;;0.72;100.00;96447.03;1038828;28;20029;-74
2023/04/10 00:51:07;;;;;;;18.68;10.72;;;;;;;0.72;100.00;96451.41;1038712;28;20021;-75
2023/04/10 00:51:37;;;;;;;16.42;9.18;;;;;;;0.68;100.00;96445.81;1034106;28;20030;-75
2023/04/10 00:52:08;;;;;;;17.98;9.52;;;;;;;0.73;100.00;96448.63;1030608;28;20030;-74
2023/04/10 00:52:38;;;;;;;16.25;10.00;;;;;;;0.74;100.00;96449.41;1026629;28;20034;-74
2023/04/10 00:53:08;;;;;;;16.17;9.27;;;;;;;0.72;100.00;96443.66;1026877;28;20018;-74
2023/04/10 00:53:39;;;;;;;17.70;9.23;;;;;;;0.69;100.00;96448.19;1022435;28;20027;-74
2023/04/10 00:54:10;;;;;;;17.02;9.43;;;;;;;0.70;100.00;96449.00;1034439;28;20527;-73
2023/04/10 00:54:40;;;;;;;16.02;8.50;;;;;;;0.70;100.00;96449.81;1021726;28;20027;-74
2023/04/10 00:55:10;;;;;;;17.13;9.23;;;;;;;0.68;100.00;96441.44;1025204;28;20034;-74
2023/04/10 00:55:41;;;;;;;16.63;9.10;;;;;;;0.71;100.00;96448.03;1038337;28;20083;-73
2023/04/10 00:56:12;;;;;;;19.83;9.43;;;;;;;0.63;100.00;96436.00;1034332;28;20014;-74
2023/04/10 00:56:42;;;;;;;16.27;9.60;;;;;;;0.70;100.00;96447.22;1038631;28;20022;-74
2023/04/10 00:57:13;;;;;;;16.40;9.57;;;;;;;0.67;100.00;96447.59;1030164;28;20396;-74
2023/04/10 00:57:45;;;;;;;19.60;8.77;;;;;;;0.69;100.00;96448.19;1042862;28;20028;-74
2023/04/10 00:58:15;;;;;;;15.36;8.50;;;;;;;0.70;100.00;96446.41;1035048;28;20025;-74
2023/04/10 00:58:46;;;;;;;15.10;8.70;;;;;;;0.69;100.00;96445.63;1038467;28;20028;-74
2023/04/10 00:59:17;;;;;;;17.05;8.52;;;;;;;0.62;100.00;96434.41;1034310;28;20152;-74
2023/04/10 00:59:49;;;;;;;20.13;9.60;;;;;;;0.68;100.00;96446.59;1034499;28;20029;-74
2023/04/10 01:00:20;;;;;;;17.22;9.16;;;;;;;0.62;100.00;96431.84;1034777;28;20403;-74
2023/04/10 01:00:50;;;;;;;18.70;8.95;;;;;;;0.72;100.00;96443.66;1034637;28;20058;-73
2023/04/10 01:01:21;;;;;;;15.68;9.00;;;;;;;0.60;100.00;96428.63;1037974;28;20509;-74
2023/04/10 01:01:51;;;;;;;17.13;8.70;;;;;;;0.69;100.00;96442.22;1028499;28;20027;-74
2023/04/10 01:02:22;;;;;;;17.58;8.95;;;;;;;0.67;100.00;96445.00;1034458;28;20018;-73
2023/04/10 01:02:53;;;;;;;19.60;9.80;;;;;;;0.68;100.00;96441.44;1038922;28;20017;-73
2023/04/10 01:03:23;;;;;;;20.10;9.34;;;;;;;0.67;100.00;96445.00;1037716;28;20032;-74
2023/04/10 01:03:54;;;;;;;15.98;9.10;;;;;;;0.67;100.00;96445.00;1038298;28;20408;-74
2023/04/10 01:04:25;;;;;;;16.88;9.32;;;;;;;0.66;100.00;96438.22;1030604;28;20017;-74
2023/04/10 01:04:55;;;;;;;15.46;9.62;;;;;;;0.61;100.00;96438.00;1030041;28;20050;-74
2023/04/10 01:05:28;;;;;;;17.35;9.30;;;;;;;0.63;100.00;96443.75;1026197;28;20026;-74
2023/04/10 01:06:08;;;;;;;16.20;9.24;;;;;;;0.57;100.00;96426.44;1032488;28;20700;-73
2023/04/10 01:06:38;;;;;;;21.27;9.82;;;;;;;0.64;100.00;96436.84;1034453;28;20026;-74
2023/04/10 01:07:17;;;;;;;17.23;9.57;;;;;;;0.63;100.00;96440.38;1026092;28;20177;-74
2023/04/10 01:08:11;;;;;;;15.14;8.74;;;;;;;0.65;100.00;96444.38;1034257;28;20021;-74
2023/04/10 01:08:49;;;;;;;18.68;8.28;;;;;;;0.66;100.00;96443.38;1034834;28;20044;-74
2023/04/10 01:09:33;;;;;;;14.04;8.36;;;;;;;0.66;100.00;96445.97;1038219;28;20013;-74
2023/04/10 01:10:28;;;;;;;16.70;8.82;;;;;;;0.66;100.00;96440.81;1038524;28;20018;-74
2023/04/10 01:11:06;;;;;;;16.42;8.52;;;;;;;0.65;100.00;96441.81;1039614;28;20028;-74
2023/04/10 01:12:01;;;;;;;16.70;8.84;;;;;;;0.62;100.00;96431.03;1033103;28;20046;-74
2023/04/10 01:12:46;;;;;;;17.04;8.46;;;;;;;0.63;100.00;96442.97;1026798;28;20666;-74
2023/04/10 01:13:39;;;;;;;13.58;8.10;;;;;;;0.64;100.00;96442.78;1031658;28;20042;-74
2023/04/10 01:14:22;;;;;;;14.36;8.14;;;;;;;0.63;100.00;96442.97;1036223;28;20021;-74
2023/04/10 01:15:09;;;;;;;15.82;7.98;;;;;;;0.60;100.00;96438.94;1030709;28;20778;-73
2023/04/10 01:15:46;;;;;;;15.64;8.18;;;;;;;0.58;100.00;96435.78;1033048;28;20719;-74
2023/04/10 01:16:54;;;;;;;17.14;8.06;;;;;;;0.58;100.00;96437.56;1030003;28;20026;-71
2023/04/10 01:17:35;;;;;;;15.92;7.58;;;;;;;0.49;100.00;96420.56;1021695;28;20019;-74
2023/04/10 01:18:23;;;;;;;15.02;7.54;;;;;;;0.50;100.00;96430.69;1028784;28;20023;-71
2023/04/10 01:18:56;;;;;;;15.72;8.46;;;;;;;0.46;100.00;96421.72;1033284;28;20027;-73
2023/04/10 01:19:42;;;;;;;15.92;8.30;;;;;;;0.48;100.00;96430.09;1029773;28;20072;-74
2023/04/10 01:20:15;;;;;;;17.86;8.80;;;;;;;0.44;100.00;96434.03;1025640;28;20022;-74
2023/04/10 01:20:45;;;;;;;18.50;9.08;;;;;;;0.44;100.00;96427.09;1028876;28;20492;-74
2023/04/10 01:21:16;;;;;;;15.23;8.77;;;;;;;0.44;100.00;96421.13;1030117;28;20022;-74
2023/04/10 01:21:46;;;;;;;17.20;9.82;;;;;;;0.45;100.00;96435.63;1026314;28;20019;-74
2023/04/10 01:22:17;;;;;;;15.60;8.70;;;;;;;0.41;100.00;96419.69;1034213;28;20013;-74
2023/04/10 01:23:24;;;;;;;16.30;8.63;;;;;;;0.44;100.00;96428.88;1038243;28;20021;-74
2023/04/10 01:24:03;;;;;;;13.86;8.00;;;;;;;0.44;100.00;96423.69;1036888;28;20093;-75
2023/04/10 01:25:00;;;;;;;16.90;9.02;;;;;;;0.43;100.00;96427.25;1039944;28;20100;-74
2023/04/10 01:25:38;;;;;;;16.10;8.34;;;;;;;0.41;100.00;96435.19;1038187;28;20025;-74
2023/04/10 01:26:12;;;;;;;17.00;8.50;;;;;;;0.38;100.00;96427.00;1032697;28;20038;-74
2023/04/10 01:27:22;;;;;;;15.36;8.60;;;;;;;0.40;100.00;96440.50;1034481;28;20033;-74
2023/04/10 01:28:15;;;;;;;15.88;8.54;;;;;;;0.41;100.00;96439.56;1037863;28;20108;-74
2023/04/10 01:29:00;;;;;;;13.42;7.88;;;;;;;0.34;100.00;96425.78;1034285;28;20028;-73
2023/04/10 01:29:31;;;;;;;14.36;7.84;;;;;;;0.33;100.00;96431.91;1034355;28;20104;-73
2023/04/10 01:30:02;;;;;;;16.02;8.42;;;;;;;0.33;100.00;96430.09;1030164;28;20109;-74
2023/04/10 01:30:33;;;;;;;17.88;8.48;;;;;;;0.37;100.00;96443.44;1028638;28;20022;-74
2023/04/10 01:31:03;;;;;;;15.62;9.08;;;;;;;0.34;100.00;96436.91;1022192;29;20046;-74
2023/04/10 01:31:40;;;;;;;16.65;9.05;;;;;;;0.32;100.00;96431.09;1036764;28;20037;-74
2023/04/10 01:32:13;;;;;;;18.88;7.90;;;;;;;0.30;100.00;96437.41;1036793;28;20029;-73
2023/04/10 01:32:43;;;;;;;16.04;9.12;;;;;;;0.31;100.00;96436.47;1034871;28;20573;-74
2023/04/10 01:33:16;;;;;;;17.02;8.52;;;;;;;0.26;100.00;96431.03;1026014;28;20073;-73
2023/04/10 01:33:49;;;;;;;15.84;8.50;;;;;;;0.29;100.00;96436.63;1032192;28;20435;-74
2023/04/10 01:34:24;;;;;;;16.48;9.22;;;;;;;0.28;100.00;96439.41;1034256;28;20033;-73
2023/04/10 01:34:55;;;;;;;24.06;9.70;;;;;;;0.25;100.00;96432.00;1033802;28;20022;-74
2023/04/10 01:35:28;;;;;;;16.34;8.22;;;;;;;0.27;100.00;96437.78;1029540;28;20777;-73
2023/04/10 01:35:59;;;;;;;14.60;8.18;;;;;;;0.18;100.00;96427.56;1038027;28;20036;-73
2023/04/10 01:36:46;;;;;;;14.64;8.40;;;;;;;0.19;100.00;96429.16;1035627;28;20034;-74
2023/04/10 01:37:24;;;;;;;16.00;9.32;;;;;;;0.18;100.00;96440.47;1028680;28;20427;-73
2023/04/10 01:37:55;;;;;;;15.66;8.34;;;;;;;0.19;100.00;96438.69;1030233;28;20045;-73
2023/04/10 01:38:26;;;;;;;13.90;7.65;;;;;;;0.20;100.00;96435.94;1026199;28;20094;-73
2023/04/10 01:38:56;;;;;;;16.30;8.60;;;;;;;0.18;100.00;96435.31;1032703;28;20022;-73
2023/04/10 01:39:27;;;;;;;18.90;8.50;;;;;;;0.13;100.00;96429.88;1034070;28;20015;-74
2023/04/10 01:40:02;;;;;;;17.48;9.40;;;;;;;0.12;100.00;96430.84;1034283;28;20018;-74
2023/04/10 01:40:32;;;;;;;16.20;8.36;;;;;;;0.11;100.00;96433.63;1029786;28;20553;-74
2023/04/10 01:41:03;;;;;;;16.27;9.10;;;;;;;0.15;100.00;96438.25;1030077;28;20068;-73
2023/04/10 01:41:33;;;;;;;15.73;8.68;;;;;;;0.15;100.00;96434.88;1022394;29;20031;-74
2023/04/10 01:42:05;;;;;;;17.33;9.13;;;;;;;0.16;100.00;96442.41;1030041;28;20058;-73
2023/04/10 01:42:40;;;;;;;17.84;8.74;;;;;;;0.08;100.00;96431.41;1030187;28;20026;-73
2023/04/10 01:43:10;;;;;;;16.46;8.86;;;;;;;0.14;100.00;96438.44;1032756;28;20108;-73
2023/04/10 01:43:41;;;;;;;15.68;8.73;;;;;;;0.15;100.00;96435.66;1030221;28;20084;-73
2023/04/10 01:44:13;;;;;;;16.13;9.02;;;;;;;0.16;100.00;96442.41;1034046;28;20061;-73
2023/04/10 01:44:45;;;;;;;16.60;9.28;;;;;;;0.14;100.00;96435.84;1033503;28;20041;-73
2023/04/10 01:45:18;;;;;;;18.96;8.76;;;;;;;0.10;100.00;96432.00;1038090;28;20022;-73
2023/04/10 01:45:50;;;;;;;16.42;8.30;;;;;;;0.15;100.00;96445.97;1033246;28;20018;-74
2023/04/10 01:46:20;;;;;;;16.36;8.66;;;;;;;0.08;100.00;96428.81;1030157;28;20073;-73
2023/04/10 01:46:51;;;;;;;15.38;8.57;;;;;;;0.13;100.00;96437.59;1029616;28;20522;-73
2023/04/10 01:47:21;;;;;;;18.83;9.45;;;;;;;0.08;100.00;96434.00;1030128;28;20046;-74
2023/04/10 01:47:52;;;;;;;13.55;8.05;;;;;;;0.10;100.00;96437.16;1026158;28;20015;-74
2023/04/10 01:48:22;;;;;;;15.02;8.63;;;;;;;0.07;100.00;96428.03;1026035;28;20019;-74
2023/04/10 01:48:53;;;;;;;14.07;8.25;;;;;;;0.09;100.00;96436.38;1029581;28;20125;-74
2023/04/10 01:49:25;;;;;;;17.35;9.63;;;;;;;0.09;100.00;96444.13;1026152;28;20018;-74
2023/04/10 01:49:55;;;;;;;18.60;10.08;;;;;;;0.03;100.00;96425.97;1034228;28;20093;-73
2023/04/10 01:50:27;;;;;;;17.73;8.90;;;;;;;0.05;100.00;96435.13;1030384;28;20586;-74
2023/04/10 01:50:59;;;;;;;17.04;9.24;;;;;;;0.08;100.00;96439.16;1034178;28;20022;-74
2023/04/10 01:51:30;;;;;;;16.40;8.74;;;;;;;0.06;100.00;96431.56;1034209;28;20526;-74
2023/04/10 01:52:00;;;;;;;14.74;8.24;;;;;;;0.07;100.00;96434.94;1034319;28;20024;-72
2023/04/10 01:52:31;;;;;;;15.52;8.52;;;;;;;0.06;100.00;96434.16;1032768;28;20404;-73
2023/04/10 01:53:03;;;;;;;18.63;9.27;;;;;;;0.06;100.00;96430.78;1030077;28;20496;-73
2023/04/10 01:53:33;;;;;;;15.36;7.92;;;;;;;0.06;100.00;96434.16;1030047;28;20019;-73
2023/04/10 01:54:04;;;;;;;18.48;9.02;;;;;;;0.06;100.00;96434.16;1036889;28;20093;-74
2023/04/10 01:54:35;;;;;;;16.33;8.52;;;;;;;0.00;100.00;96419.41;1021704;29;20030;-73
2023/04/10 01:55:06;;;;;;;14.40;8.10;;;;;;;0.06;100.00;96429.00;1031103;28;20015;-73
2023/04/10 01:55:37;;;;;;;15.98;8.86;;;;;;;0.06;100.00;96426.41;1034107;28;20022;-74
2023/04/10 01:56:07;;;;;;;14.75;8.30;;;;;;;0.03;100.00;96425.97;1038001;28;20087;-74
2023/04/10 01:56:38;;;;;;;17.90;9.57;;;;;;;-0.01;100.00;96416.00;1030188;28;20094;-74
2023/04/10 01:57:09;;;;;;;16.33;8.57;;;;;;;0.01;100.00;96425.38;1022137;29;20015;-74
2023/04/10 01:57:40;;;;;;;14.28;8.18;;;;;;;0.08;100.00;96429.63;1037885;28;20458;-74
2023/04/10 01:58:11;;;;;;;15.00;7.85;;;;;;;0.08;100.00;96428.81;1030071;28;20030;-72
2023/04/10 01:58:41;;;;;;;19.02;9.35;;;;;;;0.09;100.00;96425.25;1030087;28;20010;-74
2023/04/10 01:59:11;;;;;;;16.20;8.85;;;;;;;0.11;100.00;96431.06;1030225;28;20014;-75
2023/04/10 01:59:43;;;;;;;15.18;8.43;;;;;;;0.10;100.00;96427.69;1030068;28;20523;-74
2023/04/10 02:00:16;;;;;;;14.94;7.90;;;;;;;0.10;100.00;96427.69;1033828;28;20036;-74
2023/04/10 02:00:47;;;;;;;14.80;8.28;;;;;;;0.06;100.00;96415.28;1029944;28;20511;-74
2023/04/10 02:01:19;;;;;;;15.77;8.38;;;;;;;0.12;100.00;96423.13;1030622;28;20018;-74
2023/04/10 02:01:55;;;;;;;15.24;8.36;;;;;;;0.11;100.00;96424.09;1035575;28;20022;-74
2023/04/10 02:02:30;;;;;;;14.36;8.80;;;;;;;0.14;100.00;96425.53;1038195;28;20588;-74
2023/04/10 02:03:00;;;;;;;15.30;8.36;;;;;;;0.13;100.00;96435.03;1034141;28;20526;-73
2023/04/10 02:03:31;;;;;;;15.38;8.77;;;;;;;0.14;100.00;96425.53;1037951;28;20040;-74
2023/04/10 02:04:02;;;;;;;14.70;8.13;;;;;;;0.13;100.00;96423.91;1034952;28;20057;-74
2023/04/10 02:04:32;;;;;;;19.83;9.60;;;;;;;0.13;100.00;96427.28;1038083;28;20031;-73
2023/04/10 02:05:03;;;;;;;18.75;9.18;;;;;;;0.08;100.00;96419.31;1046333;28;20021;-73
2023/04/10 02:06:10;;;;;;;15.07;8.40;;;;;;;0.15;100.00;96424.53;1046246;28;20024;-74
2023/04/10 02:07:17;;;;;;;14.90;7.78;;;;;;;0.13;100.00;96421.34;1046570;28;20101;-73
2023/04/10 02:08:01;;;;;;;15.04;7.48;;;;;;;0.21;100.00;96429.00;1027501;28;20054;-74
2023/04/10 02:08:36;;;;;;;17.20;8.40;;;;;;;0.21;100.00;96427.22;1023355;28;20077;-74
2023/04/10 02:09:37;;;;;;;15.26;8.78;;;;;;;0.20;100.00;96420.44;1032597;28;20369;-73
2023/04/10 02:10:11;;;;;;;15.05;7.82;;;;;;;0.18;100.00;96419.81;1030587;28;20029;-74
2023/04/10 02:10:55;;;;;;;15.38;7.94;;;;;;;0.16;100.00;96424.34;1034408;28;20026;-74
2023/04/10 02:11:28;;;;;;;14.60;7.52;;;;;;;0.19;100.00;96418.03;1034072;28;20462;-74
2023/04/10 02:12:05;;;;;;;16.92;8.26;;;;;;;0.18;100.00;96419.81;1033925;28;20029;-73
2023/04/10 02:12:57;;;;;;;16.40;8.14;;;;;;;0.20;100.00;96425.63;1026081;28;20023;-74
2023/04/10 02:13:28;;;;;;;15.96;8.50;;;;;;;0.16;100.00;96411.44;1033917;28;20018;-74
2023/04/10 02:13:59;;;;;;;14.95;8.15;;;;;;;0.18;100.00;96419.03;1030002;28;20031;-74
2023/04/10 02:14:31;;;;;;;16.16;8.48;;;;;;;0.03;100.00;96400.16;1041830;28;20032;-74
2023/04/10 02:15:02;;;;;;;15.36;7.92;;;;;;;0.18;100.00;96424.97;1040662;28;20006;-74
2023/04/10 02:15:32;;;;;;;19.56;8.44;;;;;;;0.13;100.00;96414.38;1029978;28;20029;-74
2023/04/10 02:16:03;;;;;;;15.50;7.88;;;;;;;0.10;100.00;96416.53;1034021;28;20443;-74
2023/04/10 02:16:34;;;;;;;16.14;8.14;;;;;;;0.13;100.00;96422.13;1030390;28;20033;-74
2023/04/10 02:17:04;;;;;;;14.90;8.43;;;;;;;0.15;100.00;96422.75;1034376;28;20029;-74
2023/04/10 02:17:35;;;;;;;16.33;8.95;;;;;;;0.14;100.00;96425.53;1033824;28;20030;-73
2023/04/10 02:18:07;;;;;;;15.25;9.25;;;;;;;0.12;100.00;96417.97;1030110;28;20025;-74
2023/04/10 02:18:37;;;;;;;15.44;8.50;;;;;;;0.13;100.00;96419.53;1030414;28;20014;-73
2023/04/10 02:19:08;;;;;;;17.90;9.18;;;;;;;0.11;100.00;96424.09;1033870;28;20028;-74
2023/04/10 02:19:38;;;;;;;15.02;8.30;;;;;;;0.12;100.00;96420.53;1030148;28;20101;-73
2023/04/10 02:20:09;;;;;;;15.18;8.13;;;;;;;0.12;100.00;96417.97;1032430;28;20022;-74
2023/04/10 02:20:40;;;;;;;16.98;9.65;;;;;;;0.10;100.00;96417.34;1027926;28;20029;-73
2023/04/10 02:21:10;;;;;;;16.73;8.75;;;;;;;0.10;100.00;96427.69;1029939;28;20533;-74
2023/04/10 02:21:41;;;;;;;15.48;9.10;;;;;;;0.09;100.00;96423.47;1034172;28;20056;-73
2023/04/10 02:22:11;;;;;;;14.93;8.35;;;;;;;0.08;100.00;96419.31;1038887;28;20017;-74
2023/04/10 02:22:44;;;;;;;16.35;8.88;;;;;;;0.07;100.00;96422.88;1035385;28;20030;-74
2023/04/10 02:23:16;;;;;;;16.42;9.14;;;;;;;0.00;100.00;96411.66;1033053;28;20022;-74
2023/04/10 02:23:46;;;;;;;17.68;9.64;;;;;;;0.06;100.00;96418.66;1039263;28;20013;-74
2023/04/10 02:24:17;;;;;;;15.85;8.75;;;;;;;0.03;100.00;96419.03;1035075;28;20014;-73
2023/04/10 02:24:48;;;;;;;15.54;8.74;;;;;;;0.05;100.00;96421.44;1029787;28;20023;-72
2023/04/10 02:25:18;;;;;;;16.30;8.55;;;;;;;0.04;100.00;96418.06;1030761;28;20037;-74
2023/04/10 02:25:49;;;;;;;16.13;8.80;;;;;;;0.04;100.00;96423.22;1030792;28;20037;-74
2023/04/10 02:26:20;;;;;;;14.70;8.18;;;;;;;0.01;100.00;96423.59;1037520;28;20048;-74
2023/04/10 02:26:51;;;;;;;14.82;8.40;;;;;;;-0.16;100.00;96391.22;1030793;28;20069;-74
2023/04/10 02:27:34;;;;;;;20.48;8.55;;;;;;;0.01;100.00;96415.03;1030960;28;20026;-74
2023/04/10 02:28:05;;;;;;;17.34;8.86;;;;;;;0.01;100.00;96426.16;1034877;28;20269;-73
2023/04/10 02:28:38;;;;;;;20.77;9.30;;;;;;;0.00;100.00;96424.56;1030709;28;20874;-74
2023/04/10 02:29:09;;;;;;;15.62;8.54;;;;;;;-0.01;100.00;96425.53;1035369;28;20269;-74
2023/04/10 02:29:39;;;;;;;17.13;8.90;;;;;;;-0.06;100.00;96413.19;1040558;28;20423;-74
2023/04/10 02:30:10;;;;;;;20.25;9.13;;;;;;;-0.05;100.00;96417.34;1030831;28;20523;-73
2023/04/10 02:30:40;;;;;;;17.85;8.95;;;;;;;-0.03;100.00;96422.34;1031082;28;20025;-74
2023/04/10 02:31:11;;;;;;;16.45;9.15;;;;;;;-0.03;100.00;96422.34;1030734;28;20120;-74
2023/04/10 02:31:41;;;;;;;16.05;8.43;;;;;;;-0.04;100.00;96423.31;1030497;28;20037;-74
2023/04/10 02:32:12;;;;;;;17.70;8.07;;;;;;;-0.04;100.00;96425.88;1034506;28;20029;-74
2023/04/10 02:32:42;;;;;;;14.32;8.75;;;;;;;-0.04;100.00;96431.03;1030698;28;20813;-74
2023/04/10 02:33:13;;;;;;;16.90;8.85;;;;;;;-0.06;100.00;96425.28;1031010;28;20061;-74
2023/04/10 02:33:43;;;;;;;17.08;9.07;;;;;;;-0.07;100.00;96427.06;1038974;28;20033;-74
2023/04/10 02:34:14;;;;;;;18.80;8.98;;;;;;;-0.07;100.00;96426.25;1035162;28;20034;-73